sensor_id;sensor_type;location;lat;lon;timestamp;P1;durP1;ratioP1;P2;durP2;ratioP2
10088;SDS011;51898;49.864;8.550;2023-03-01T00:00:19;15.60;;;9.97;;
10088;SDS011;51898;49.864;8.550;2023-03-01T00:03:21;18.17;;;10.40;;
10088;SDS011;51898;49.864;8.550;2023-03-01T00:06:23;17.30;;;10.00;;
10088;SDS011;51898;49.864;8.550;2023-03-01T00:09:26;18.23;;;10.90;;
10088;SDS011;51898;49.864;8.550;2023-03-01T00:12:28;15.90;;;9.87;;
10088;SDS011;51898;49.864;8.550;2023-03-01T00:15:29;15.30;;;9.53;;
10088;SDS011;51898;49.864;8.550;2023-03-01T00:18:31;15.53;;;10.17;;
10088;SDS011;51898;49.864;8.550;2023-03-01T00:21:33;20.30;;;10.90;;
10088;SDS011;51898;49.864;8.550;2023-03-01T00:24:36;17.13;;;10.70;;
10088;SDS011;51898;49.864;8.550;2023-03-01T00:27:38;21.70;;;10.50;;
10088;SDS011;51898;49.864;8.550;2023-03-01T00:30:39;20.00;;;10.40;;
10088;SDS011;51898;49.864;8.550;2023-03-01T00:33:42;18.03;;;10.60;;
10088;SDS011;51898;49.864;8.550;2023-03-01T00:36:44;19.20;;;10.50;;
10088;SDS011;51898;49.864;8.550;2023-03-01T00:39:46;18.20;;;10.10;;
10088;SDS011;51898;49.864;8.550;2023-03-01T00:42:48;16.27;;;10.27;;
10088;SDS011;51898;49.864;8.550;2023-03-01T00:45:50;17.50;;;9.60;;
10088;SDS011;51898;49.864;8.550;2023-03-01T00:48:51;18.50;;;10.50;;
10088;SDS011;51898;49.864;8.550;2023-03-01T00:51:53;18.00;;;11.03;;
10088;SDS011;51898;49.864;8.550;2023-03-01T00:54:55;20.67;;;10.67;;
10088;SDS011;51898;49.864;8.550;2023-03-01T00:57:58;17.87;;;10.27;;
10088;SDS011;51898;49.864;8.550;2023-03-01T01:01:00;21.17;;;10.27;;
10088;SDS011;51898;49.864;8.550;2023-03-01T01:04:03;18.60;;;10.33;;
10088;SDS011;51898;49.864;8.550;2023-03-01T01:07:07;19.40;;;10.80;;
10088;SDS011;51898;49.864;8.550;2023-03-01T01:10:09;17.30;;;10.40;;
10088;SDS011;51898;49.864;8.550;2023-03-01T01:13:18;17.13;;;10.10;;
10088;SDS011;51898;49.864;8.550;2023-03-01T01:16:20;19.73;;;10.50;;
10088;SDS011;51898;49.864;8.550;2023-03-01T01:19:24;18.10;;;10.77;;
10088;SDS011;51898;49.864;8.550;2023-03-01T01:22:26;21.93;;;11.23;;
10088;SDS011;51898;49.864;8.550;2023-03-01T01:25:28;17.30;;;10.57;;
10088;SDS011;51898;49.864;8.550;2023-03-01T01:28:30;15.97;;;9.70;;
10088;SDS011;51898;49.864;8.550;2023-03-01T01:31:32;19.53;;;11.03;;
10088;SDS011;51898;49.864;8.550;2023-03-01T01:34:35;19.77;;;10.20;;
10088;SDS011;51898;49.864;8.550;2023-03-01T01:37:37;16.87;;;10.27;;
10088;SDS011;51898;49.864;8.550;2023-03-01T01:40:45;19.97;;;11.17;;
10088;SDS011;51898;49.864;8.550;2023-03-01T01:43:48;18.57;;;11.10;;
10088;SDS011;51898;49.864;8.550;2023-03-01T01:47:18;22.17;;;11.83;;
10088;SDS011;51898;49.864;8.550;2023-03-01T01:50:23;20.47;;;11.70;;
10088;SDS011;51898;49.864;8.550;2023-03-01T01:53:26;25.17;;;12.40;;
10088;SDS011;51898;49.864;8.550;2023-03-01T01:56:28;21.30;;;11.60;;
10088;SDS011;51898;49.864;8.550;2023-03-01T01:59:31;24.73;;;12.00;;
10088;SDS011;51898;49.864;8.550;2023-03-01T02:02:34;20.20;;;11.90;;
10088;SDS011;51898;49.864;8.550;2023-03-01T02:05:43;18.00;;;10.73;;
10088;SDS011;51898;49.864;8.550;2023-03-01T02:09:06;19.73;;;11.03;;
10088;SDS011;51898;49.864;8.550;2023-03-01T02:12:13;20.10;;;10.50;;
10088;SDS011;51898;49.864;8.550;2023-03-01T02:15:16;19.60;;;11.40;;
10088;SDS011;51898;49.864;8.550;2023-03-01T02:18:18;19.10;;;10.80;;
10088;SDS011;51898;49.864;8.550;2023-03-01T02:22:06;19.13;;;11.20;;
10088;SDS011;51898;49.864;8.550;2023-03-01T02:28:22;22.67;;;11.50;;
10088;SDS011;51898;49.864;8.550;2023-03-01T02:31:26;17.67;;;12.13;;
10088;SDS011;51898;49.864;8.550;2023-03-01T02:34:43;22.70;;;12.47;;
10088;SDS011;51898;49.864;8.550;2023-03-01T02:37:45;23.10;;;12.13;;
10088;SDS011;51898;49.864;8.550;2023-03-01T02:40:47;17.30;;;10.57;;
10088;SDS011;51898;49.864;8.550;2023-03-01T02:43:52;19.13;;;11.83;;
10088;SDS011;51898;49.864;8.550;2023-03-01T02:46:55;20.43;;;11.30;;
10088;SDS011;51898;49.864;8.550;2023-03-01T02:49:58;20.50;;;12.40;;
10088;SDS011;51898;49.864;8.550;2023-03-01T02:53:11;19.43;;;11.90;;
10088;SDS011;51898;49.864;8.550;2023-03-01T02:56:23;22.10;;;11.67;;
10088;SDS011;51898;49.864;8.550;2023-03-01T02:59:27;22.10;;;11.67;;
10088;SDS011;51898;49.864;8.550;2023-03-01T03:02:32;21.90;;;11.63;;
10088;SDS011;51898;49.864;8.550;2023-03-01T03:05:38;21.10;;;11.60;;
10088;SDS011;51898;49.864;8.550;2023-03-01T03:08:39;23.50;;;12.10;;
10088;SDS011;51898;49.864;8.550;2023-03-01T03:11:41;28.93;;;12.63;;
10088;SDS011;51898;49.864;8.550;2023-03-01T03:14:43;20.27;;;11.20;;
10088;SDS011;51898;49.864;8.550;2023-03-01T03:17:45;22.57;;;11.40;;
10088;SDS011;51898;49.864;8.550;2023-03-01T03:20:47;20.53;;;12.73;;
10088;SDS011;51898;49.864;8.550;2023-03-01T03:23:53;25.03;;;11.43;;
10088;SDS011;51898;49.864;8.550;2023-03-01T03:26:55;22.53;;;12.70;;
10088;SDS011;51898;49.864;8.550;2023-03-01T03:29:56;18.70;;;11.57;;
10088;SDS011;51898;49.864;8.550;2023-03-01T03:32:58;21.50;;;11.67;;
10088;SDS011;51898;49.864;8.550;2023-03-01T03:36:00;20.60;;;12.03;;
10088;SDS011;51898;49.864;8.550;2023-03-01T03:39:02;20.27;;;11.03;;
10088;SDS011;51898;49.864;8.550;2023-03-01T03:42:04;23.10;;;12.07;;
10088;SDS011;51898;49.864;8.550;2023-03-01T03:45:05;22.10;;;11.30;;
10088;SDS011;51898;49.864;8.550;2023-03-01T03:48:08;18.47;;;11.70;;
10088;SDS011;51898;49.864;8.550;2023-03-01T03:51:11;21.10;;;11.67;;
10088;SDS011;51898;49.864;8.550;2023-03-01T03:54:14;21.37;;;11.97;;
10088;SDS011;51898;49.864;8.550;2023-03-01T03:57:16;20.80;;;12.30;;
10088;SDS011;51898;49.864;8.550;2023-03-01T04:00:19;22.37;;;12.93;;
10088;SDS011;51898;49.864;8.550;2023-03-01T04:03:23;21.27;;;11.53;;
10088;SDS011;51898;49.864;8.550;2023-03-01T04:06:26;22.67;;;11.80;;
10088;SDS011;51898;49.864;8.550;2023-03-01T04:09:27;21.33;;;12.70;;
10088;SDS011;51898;49.864;8.550;2023-03-01T04:12:31;20.20;;;12.20;;
10088;SDS011;51898;49.864;8.550;2023-03-01T04:15:35;20.40;;;11.87;;
10088;SDS011;51898;49.864;8.550;2023-03-01T04:18:36;19.07;;;12.60;;
10088;SDS011;51898;49.864;8.550;2023-03-01T04:21:38;20.47;;;12.07;;
10088;SDS011;51898;49.864;8.550;2023-03-01T04:24:40;18.20;;;11.43;;
10088;SDS011;51898;49.864;8.550;2023-03-01T04:27:41;18.43;;;11.97;;
10088;SDS011;51898;49.864;8.550;2023-03-01T04:30:43;18.20;;;11.13;;
10088;SDS011;51898;49.864;8.550;2023-03-01T04:33:46;23.60;;;13.70;;
10088;SDS011;51898;49.864;8.550;2023-03-01T04:36:55;21.13;;;13.20;;
10088;SDS011;51898;49.864;8.550;2023-03-01T04:39:56;20.77;;;12.43;;
10088;SDS011;51898;49.864;8.550;2023-03-01T04:42:58;20.80;;;11.10;;
10088;SDS011;51898;49.864;8.550;2023-03-01T04:46:04;18.23;;;11.33;;
10088;SDS011;51898;49.864;8.550;2023-03-01T04:49:10;20.33;;;11.13;;
10088;SDS011;51898;49.864;8.550;2023-03-01T04:52:11;25.07;;;12.17;;
10088;SDS011;51898;49.864;8.550;2023-03-01T04:55:13;22.70;;;12.27;;
10088;SDS011;51898;49.864;8.550;2023-03-01T04:58:15;22.57;;;13.53;;
10088;SDS011;51898;49.864;8.550;2023-03-01T05:01:19;24.13;;;12.13;;
10088;SDS011;51898;49.864;8.550;2023-03-01T05:04:22;22.47;;;13.30;;
10088;SDS011;51898;49.864;8.550;2023-03-01T05:07:24;20.70;;;13.20;;
10088;SDS011;51898;49.864;8.550;2023-03-01T05:10:27;27.23;;;13.43;;
10088;SDS011;51898;49.864;8.550;2023-03-01T05:13:31;22.40;;;12.60;;
10088;SDS011;51898;49.864;8.550;2023-03-01T05:16:33;23.53;;;13.17;;
10088;SDS011;51898;49.864;8.550;2023-03-01T05:19:36;26.30;;;13.30;;
10088;SDS011;51898;49.864;8.550;2023-03-01T05:22:38;24.50;;;15.07;;
10088;SDS011;51898;49.864;8.550;2023-03-01T05:25:40;20.80;;;12.93;;
10088;SDS011;51898;49.864;8.550;2023-03-01T05:28:41;23.80;;;13.43;;
10088;SDS011;51898;49.864;8.550;2023-03-01T05:31:43;25.27;;;13.03;;
10088;SDS011;51898;49.864;8.550;2023-03-01T05:34:45;24.27;;;12.40;;
10088;SDS011;51898;49.864;8.550;2023-03-01T05:37:48;39.50;;;16.40;;
10088;SDS011;51898;49.864;8.550;2023-03-01T05:40:50;40.77;;;16.47;;
10088;SDS011;51898;49.864;8.550;2023-03-01T05:43:51;34.90;;;14.13;;
10088;SDS011;51898;49.864;8.550;2023-03-01T05:46:53;23.97;;;13.40;;
10088;SDS011;51898;49.864;8.550;2023-03-01T05:49:55;26.73;;;12.83;;
10088;SDS011;51898;49.864;8.550;2023-03-01T05:53:04;22.83;;;13.80;;
10088;SDS011;51898;49.864;8.550;2023-03-01T05:56:08;29.00;;;14.60;;
10088;SDS011;51898;49.864;8.550;2023-03-01T05:59:10;24.13;;;13.30;;
10088;SDS011;51898;49.864;8.550;2023-03-01T06:02:12;29.43;;;13.27;;
10088;SDS011;51898;49.864;8.550;2023-03-01T06:05:14;24.83;;;13.80;;
10088;SDS011;51898;49.864;8.550;2023-03-01T06:08:16;27.00;;;14.03;;
10088;SDS011;51898;49.864;8.550;2023-03-01T06:11:18;25.23;;;12.40;;
10088;SDS011;51898;49.864;8.550;2023-03-01T06:14:20;22.27;;;13.20;;
10088;SDS011;51898;49.864;8.550;2023-03-01T06:17:22;25.33;;;15.43;;
10088;SDS011;51898;49.864;8.550;2023-03-01T06:20:24;26.40;;;13.17;;
10088;SDS011;51898;49.864;8.550;2023-03-01T06:23:27;25.67;;;13.30;;
10088;SDS011;51898;49.864;8.550;2023-03-01T06:26:28;21.63;;;12.90;;
10088;SDS011;51898;49.864;8.550;2023-03-01T06:29:30;21.60;;;13.87;;
10088;SDS011;51898;49.864;8.550;2023-03-01T06:32:32;26.30;;;13.60;;
10088;SDS011;51898;49.864;8.550;2023-03-01T06:35:34;28.23;;;14.03;;
10088;SDS011;51898;49.864;8.550;2023-03-01T06:38:36;27.43;;;14.50;;
10088;SDS011;51898;49.864;8.550;2023-03-01T06:41:37;26.67;;;13.47;;
10088;SDS011;51898;49.864;8.550;2023-03-01T06:44:39;27.53;;;15.23;;
10088;SDS011;51898;49.864;8.550;2023-03-01T06:47:41;21.50;;;12.23;;
10088;SDS011;51898;49.864;8.550;2023-03-01T06:50:42;26.73;;;12.57;;
10088;SDS011;51898;49.864;8.550;2023-03-01T06:53:45;25.23;;;14.43;;
10088;SDS011;51898;49.864;8.550;2023-03-01T06:56:47;25.73;;;13.03;;
10088;SDS011;51898;49.864;8.550;2023-03-01T06:59:50;24.50;;;13.90;;
10088;SDS011;51898;49.864;8.550;2023-03-01T07:02:52;25.80;;;14.40;;
10088;SDS011;51898;49.864;8.550;2023-03-01T07:05:54;25.03;;;14.07;;
10088;SDS011;51898;49.864;8.550;2023-03-01T07:08:56;26.17;;;14.57;;
10088;SDS011;51898;49.864;8.550;2023-03-01T07:11:57;24.97;;;14.13;;
10088;SDS011;51898;49.864;8.550;2023-03-01T07:14:59;23.40;;;13.50;;
10088;SDS011;51898;49.864;8.550;2023-03-01T07:18:01;28.60;;;15.17;;
10088;SDS011;51898;49.864;8.550;2023-03-01T07:21:04;24.53;;;13.60;;
10088;SDS011;51898;49.864;8.550;2023-03-01T07:24:07;29.03;;;14.80;;
10088;SDS011;51898;49.864;8.550;2023-03-01T07:27:09;24.93;;;13.17;;
10088;SDS011;51898;49.864;8.550;2023-03-01T07:30:11;27.03;;;15.13;;
10088;SDS011;51898;49.864;8.550;2023-03-01T07:33:13;35.37;;;13.77;;
10088;SDS011;51898;49.864;8.550;2023-03-01T07:36:15;25.57;;;13.90;;
10088;SDS011;51898;49.864;8.550;2023-03-01T07:39:17;24.73;;;15.37;;
10088;SDS011;51898;49.864;8.550;2023-03-01T07:42:19;29.87;;;15.10;;
10088;SDS011;51898;49.864;8.550;2023-03-01T07:45:21;28.33;;;15.67;;
10088;SDS011;51898;49.864;8.550;2023-03-01T07:48:23;24.47;;;13.43;;
10088;SDS011;51898;49.864;8.550;2023-03-01T07:51:25;24.90;;;14.40;;
10088;SDS011;51898;49.864;8.550;2023-03-01T07:54:26;22.60;;;13.60;;
10088;SDS011;51898;49.864;8.550;2023-03-01T07:57:28;24.80;;;13.30;;
10088;SDS011;51898;49.864;8.550;2023-03-01T08:00:30;22.33;;;13.87;;
10088;SDS011;51898;49.864;8.550;2023-03-01T08:03:31;21.93;;;14.03;;
10088;SDS011;51898;49.864;8.550;2023-03-01T08:06:34;24.03;;;12.90;;
10088;SDS011;51898;49.864;8.550;2023-03-01T08:09:36;23.10;;;12.90;;
10088;SDS011;51898;49.864;8.550;2023-03-01T08:12:38;23.57;;;14.30;;
10088;SDS011;51898;49.864;8.550;2023-03-01T08:15:40;22.30;;;13.50;;
10088;SDS011;51898;49.864;8.550;2023-03-01T08:18:42;21.47;;;12.63;;
10088;SDS011;51898;49.864;8.550;2023-03-01T08:21:44;24.53;;;12.90;;
10088;SDS011;51898;49.864;8.550;2023-03-01T08:24:46;25.20;;;13.53;;
10088;SDS011;51898;49.864;8.550;2023-03-01T08:27:48;26.30;;;12.40;;
10088;SDS011;51898;49.864;8.550;2023-03-01T08:30:49;23.07;;;13.07;;
10088;SDS011;51898;49.864;8.550;2023-03-01T08:33:52;20.93;;;13.73;;
10088;SDS011;51898;49.864;8.550;2023-03-01T08:36:58;23.23;;;13.00;;
10088;SDS011;51898;49.864;8.550;2023-03-01T08:40:00;19.97;;;12.67;;
10088;SDS011;51898;49.864;8.550;2023-03-01T08:43:01;23.97;;;13.57;;
10088;SDS011;51898;49.864;8.550;2023-03-01T08:46:03;20.50;;;12.50;;
10088;SDS011;51898;49.864;8.550;2023-03-01T08:49:10;25.50;;;12.40;;
10088;SDS011;51898;49.864;8.550;2023-03-01T08:52:14;22.53;;;13.20;;
10088;SDS011;51898;49.864;8.550;2023-03-01T08:55:16;18.90;;;12.23;;
10088;SDS011;51898;49.864;8.550;2023-03-01T08:58:18;18.87;;;11.43;;
10088;SDS011;51898;49.864;8.550;2023-03-01T09:01:20;22.70;;;12.63;;
10088;SDS011;51898;49.864;8.550;2023-03-01T09:04:21;22.43;;;12.10;;
10088;SDS011;51898;49.864;8.550;2023-03-01T09:07:23;21.63;;;10.27;;
10088;SDS011;51898;49.864;8.550;2023-03-01T09:10:29;26.47;;;13.83;;
10088;SDS011;51898;49.864;8.550;2023-03-01T09:13:30;23.00;;;12.80;;
10088;SDS011;51898;49.864;8.550;2023-03-01T09:16:33;22.00;;;12.90;;
10088;SDS011;51898;49.864;8.550;2023-03-01T09:19:37;20.30;;;12.77;;
10088;SDS011;51898;49.864;8.550;2023-03-01T09:22:39;29.17;;;14.73;;
10088;SDS011;51898;49.864;8.550;2023-03-01T09:25:40;21.50;;;12.23;;
10088;SDS011;51898;49.864;8.550;2023-03-01T09:28:42;24.00;;;13.17;;
10088;SDS011;51898;49.864;8.550;2023-03-01T09:31:45;20.20;;;12.87;;
10088;SDS011;51898;49.864;8.550;2023-03-01T09:34:47;23.90;;;13.20;;
10088;SDS011;51898;49.864;8.550;2023-03-01T09:38:09;19.77;;;11.63;;
10088;SDS011;51898;49.864;8.550;2023-03-01T09:41:20;24.73;;;14.17;;
10088;SDS011;51898;49.864;8.550;2023-03-01T09:48:00;23.63;;;12.70;;
10088;SDS011;51898;49.864;8.550;2023-03-01T09:51:03;24.27;;;13.97;;
10088;SDS011;51898;49.864;8.550;2023-03-01T09:54:10;21.40;;;13.10;;
10088;SDS011;51898;49.864;8.550;2023-03-01T10:07:27;21.77;;;13.80;;
10088;SDS011;51898;49.864;8.550;2023-03-01T10:10:36;24.93;;;13.87;;
10088;SDS011;51898;49.864;8.550;2023-03-01T10:13:46;21.80;;;13.50;;
10088;SDS011;51898;49.864;8.550;2023-03-01T10:17:01;20.17;;;13.83;;
10088;SDS011;51898;49.864;8.550;2023-03-01T10:20:16;26.73;;;14.37;;
10088;SDS011;51898;49.864;8.550;2023-03-01T10:23:22;21.37;;;13.57;;
10088;SDS011;51898;49.864;8.550;2023-03-01T10:33:23;21.17;;;13.10;;
10088;SDS011;51898;49.864;8.550;2023-03-01T10:36:28;20.60;;;13.90;;
10088;SDS011;51898;49.864;8.550;2023-03-01T10:39:34;19.20;;;13.20;;
10088;SDS011;51898;49.864;8.550;2023-03-01T10:42:38;24.60;;;14.83;;
10088;SDS011;51898;49.864;8.550;2023-03-01T10:45:47;20.90;;;14.10;;
10088;SDS011;51898;49.864;8.550;2023-03-01T10:52:20;24.53;;;13.73;;
10088;SDS011;51898;49.864;8.550;2023-03-01T10:55:26;20.40;;;13.63;;
10088;SDS011;51898;49.864;8.550;2023-03-01T10:58:30;23.30;;;14.43;;
10088;SDS011;51898;49.864;8.550;2023-03-01T11:01:33;22.90;;;14.60;;
10088;SDS011;51898;49.864;8.550;2023-03-01T11:04:36;20.23;;;13.73;;
10088;SDS011;51898;49.864;8.550;2023-03-01T11:07:46;24.13;;;14.63;;
10088;SDS011;51898;49.864;8.550;2023-03-01T11:10:49;20.37;;;13.30;;
10088;SDS011;51898;49.864;8.550;2023-03-01T11:17:34;22.87;;;13.50;;
10088;SDS011;51898;49.864;8.550;2023-03-01T11:20:54;23.17;;;14.40;;
10088;SDS011;51898;49.864;8.550;2023-03-01T11:23:58;23.40;;;13.93;;
10088;SDS011;51898;49.864;8.550;2023-03-01T11:27:03;22.50;;;13.87;;
10088;SDS011;51898;49.864;8.550;2023-03-01T11:36:47;22.07;;;14.23;;
10088;SDS011;51898;49.864;8.550;2023-03-01T11:40:02;20.50;;;13.00;;
10088;SDS011;51898;49.864;8.550;2023-03-01T11:46:40;22.43;;;13.13;;
10088;SDS011;51898;49.864;8.550;2023-03-01T11:53:20;20.13;;;13.47;;
10088;SDS011;51898;49.864;8.550;2023-03-01T11:56:38;20.20;;;13.40;;
10088;SDS011;51898;49.864;8.550;2023-03-01T12:06:36;19.53;;;13.13;;
10088;SDS011;51898;49.864;8.550;2023-03-01T12:17:16;22.80;;;13.27;;
10088;SDS011;51898;49.864;8.550;2023-03-01T12:20:40;18.17;;;13.03;;
10088;SDS011;51898;49.864;8.550;2023-03-01T12:24:01;17.57;;;11.83;;
10088;SDS011;51898;49.864;8.550;2023-03-01T12:37:45;16.00;;;10.80;;
10088;SDS011;51898;49.864;8.550;2023-03-01T12:51:07;14.10;;;9.20;;
10088;SDS011;51898;49.864;8.550;2023-03-01T12:54:27;14.03;;;11.37;;
10088;SDS011;51898;49.864;8.550;2023-03-01T12:57:40;15.93;;;11.17;;
10088;SDS011;51898;49.864;8.550;2023-03-01T13:10:49;13.33;;;8.73;;
10088;SDS011;51898;49.864;8.550;2023-03-01T13:17:42;15.87;;;10.07;;
10088;SDS011;51898;49.864;8.550;2023-03-01T13:20:47;16.13;;;11.67;;
10088;SDS011;51898;49.864;8.550;2023-03-01T13:23:53;17.70;;;11.67;;
10088;SDS011;51898;49.864;8.550;2023-03-01T13:27:37;14.73;;;10.50;;
10088;SDS011;51898;49.864;8.550;2023-03-01T13:33:41;18.03;;;12.30;;
10088;SDS011;51898;49.864;8.550;2023-03-01T13:36:48;13.23;;;10.30;;
10088;SDS011;51898;49.864;8.550;2023-03-01T13:39:53;15.67;;;11.23;;
10088;SDS011;51898;49.864;8.550;2023-03-01T13:42:55;17.50;;;11.07;;
10088;SDS011;51898;49.864;8.550;2023-03-01T13:46:10;13.97;;;10.57;;
10088;SDS011;51898;49.864;8.550;2023-03-01T13:49:22;14.17;;;9.63;;
10088;SDS011;51898;49.864;8.550;2023-03-01T13:52:42;13.77;;;9.87;;
10088;SDS011;51898;49.864;8.550;2023-03-01T13:55:48;16.80;;;10.07;;
10088;SDS011;51898;49.864;8.550;2023-03-01T13:59:01;17.30;;;10.37;;
10088;SDS011;51898;49.864;8.550;2023-03-01T14:02:10;14.90;;;10.00;;
10088;SDS011;51898;49.864;8.550;2023-03-01T14:05:13;13.27;;;9.60;;
10088;SDS011;51898;49.864;8.550;2023-03-01T14:08:21;13.37;;;9.80;;
10088;SDS011;51898;49.864;8.550;2023-03-01T14:14:40;13.87;;;9.23;;
10088;SDS011;51898;49.864;8.550;2023-03-01T14:17:48;12.60;;;9.57;;
10088;SDS011;51898;49.864;8.550;2023-03-01T14:21:00;13.50;;;10.03;;
10088;SDS011;51898;49.864;8.550;2023-03-01T14:24:18;13.60;;;8.97;;
10088;SDS011;51898;49.864;8.550;2023-03-01T14:27:23;12.00;;;8.73;;
10088;SDS011;51898;49.864;8.550;2023-03-01T14:30:49;12.73;;;9.00;;
10088;SDS011;51898;49.864;8.550;2023-03-01T14:33:55;12.13;;;8.93;;
10088;SDS011;51898;49.864;8.550;2023-03-01T14:36:57;11.23;;;8.50;;
10088;SDS011;51898;49.864;8.550;2023-03-01T14:40:24;12.03;;;9.50;;
10088;SDS011;51898;49.864;8.550;2023-03-01T14:43:29;14.97;;;9.93;;
10088;SDS011;51898;49.864;8.550;2023-03-01T14:46:32;15.10;;;8.80;;
10088;SDS011;51898;49.864;8.550;2023-03-01T14:49:37;14.13;;;9.10;;
10088;SDS011;51898;49.864;8.550;2023-03-01T14:52:40;13.03;;;9.50;;
10088;SDS011;51898;49.864;8.550;2023-03-01T14:55:44;12.00;;;9.63;;
10088;SDS011;51898;49.864;8.550;2023-03-01T14:58:53;15.30;;;8.60;;
10088;SDS011;51898;49.864;8.550;2023-03-01T15:01:59;15.07;;;9.27;;
10088;SDS011;51898;49.864;8.550;2023-03-01T15:05:02;13.93;;;9.20;;
10088;SDS011;51898;49.864;8.550;2023-03-01T15:08:11;12.23;;;9.60;;
10088;SDS011;51898;49.864;8.550;2023-03-01T15:14:28;13.17;;;8.67;;
10088;SDS011;51898;49.864;8.550;2023-03-01T15:17:48;12.50;;;9.43;;
10088;SDS011;51898;49.864;8.550;2023-03-01T15:20:56;10.30;;;8.57;;
10088;SDS011;51898;49.864;8.550;2023-03-01T15:24:26;12.20;;;9.70;;
10088;SDS011;51898;49.864;8.550;2023-03-01T15:27:29;12.13;;;9.53;;
10088;SDS011;51898;49.864;8.550;2023-03-01T15:30:34;12.63;;;10.00;;
10088;SDS011;51898;49.864;8.550;2023-03-01T15:33:38;13.20;;;9.10;;
10088;SDS011;51898;49.864;8.550;2023-03-01T15:36:44;13.50;;;8.73;;
10088;SDS011;51898;49.864;8.550;2023-03-01T15:39:54;15.40;;;9.00;;
10088;SDS011;51898;49.864;8.550;2023-03-01T15:42:58;14.30;;;9.37;;
10088;SDS011;51898;49.864;8.550;2023-03-01T15:46:01;11.93;;;8.60;;
10088;SDS011;51898;49.864;8.550;2023-03-01T15:49:03;11.53;;;8.60;;
10088;SDS011;51898;49.864;8.550;2023-03-01T15:52:39;13.80;;;8.63;;
10088;SDS011;51898;49.864;8.550;2023-03-01T15:55:42;12.43;;;9.70;;
10088;SDS011;51898;49.864;8.550;2023-03-01T15:58:44;14.20;;;9.40;;
10088;SDS011;51898;49.864;8.550;2023-03-01T16:01:49;12.30;;;9.37;;
10088;SDS011;51898;49.864;8.550;2023-03-01T16:04:51;11.23;;;8.93;;
10088;SDS011;51898;49.864;8.550;2023-03-01T16:07:54;12.10;;;9.47;;
10088;SDS011;51898;49.864;8.550;2023-03-01T16:10:56;13.90;;;9.80;;
10088;SDS011;51898;49.864;8.550;2023-03-01T16:13:58;11.93;;;9.60;;
10088;SDS011;51898;49.864;8.550;2023-03-01T16:16:59;12.87;;;9.67;;
10088;SDS011;51898;49.864;8.550;2023-03-01T16:20:01;16.63;;;8.87;;
10088;SDS011;51898;49.864;8.550;2023-03-01T16:23:07;13.77;;;10.77;;
10088;SDS011;51898;49.864;8.550;2023-03-01T16:26:11;14.57;;;9.40;;
10088;SDS011;51898;49.864;8.550;2023-03-01T16:29:14;15.10;;;10.53;;
10088;SDS011;51898;49.864;8.550;2023-03-01T16:32:17;16.80;;;11.10;;
10088;SDS011;51898;49.864;8.550;2023-03-01T16:35:20;16.67;;;10.10;;
10088;SDS011;51898;49.864;8.550;2023-03-01T16:38:22;14.63;;;9.30;;
10088;SDS011;51898;49.864;8.550;2023-03-01T16:41:24;12.60;;;9.30;;
10088;SDS011;51898;49.864;8.550;2023-03-01T16:44:26;15.10;;;9.60;;
10088;SDS011;51898;49.864;8.550;2023-03-01T16:47:28;14.27;;;9.77;;
10088;SDS011;51898;49.864;8.550;2023-03-01T16:50:30;17.73;;;9.80;;
10088;SDS011;51898;49.864;8.550;2023-03-01T16:53:31;18.63;;;10.90;;
10088;SDS011;51898;49.864;8.550;2023-03-01T16:56:35;16.70;;;10.03;;
10088;SDS011;51898;49.864;8.550;2023-03-01T16:59:38;13.53;;;9.40;;
10088;SDS011;51898;49.864;8.550;2023-03-01T17:02:40;15.60;;;9.60;;
10088;SDS011;51898;49.864;8.550;2023-03-01T17:05:43;14.00;;;9.70;;
10088;SDS011;51898;49.864;8.550;2023-03-01T17:08:44;14.73;;;10.37;;
10088;SDS011;51898;49.864;8.550;2023-03-01T17:11:46;18.70;;;11.73;;
10088;SDS011;51898;49.864;8.550;2023-03-01T17:14:48;17.80;;;10.57;;
10088;SDS011;51898;49.864;8.550;2023-03-01T17:17:51;14.70;;;10.67;;
10088;SDS011;51898;49.864;8.550;2023-03-01T17:20:52;18.33;;;12.00;;
10088;SDS011;51898;49.864;8.550;2023-03-01T17:23:55;15.93;;;11.37;;
10088;SDS011;51898;49.864;8.550;2023-03-01T17:26:57;16.63;;;11.30;;
10088;SDS011;51898;49.864;8.550;2023-03-01T17:29:59;16.87;;;11.00;;
10088;SDS011;51898;49.864;8.550;2023-03-01T17:33:01;15.20;;;9.93;;
10088;SDS011;51898;49.864;8.550;2023-03-01T17:36:03;20.20;;;11.20;;
10088;SDS011;51898;49.864;8.550;2023-03-01T17:39:05;16.57;;;9.90;;
10088;SDS011;51898;49.864;8.550;2023-03-01T17:42:07;17.40;;;11.10;;
10088;SDS011;51898;49.864;8.550;2023-03-01T17:45:09;18.80;;;11.47;;
10088;SDS011;51898;49.864;8.550;2023-03-01T17:48:11;17.97;;;10.70;;
10088;SDS011;51898;49.864;8.550;2023-03-01T17:51:13;21.07;;;11.40;;
10088;SDS011;51898;49.864;8.550;2023-03-01T17:54:14;25.50;;;12.00;;
10088;SDS011;51898;49.864;8.550;2023-03-01T17:57:16;17.13;;;11.20;;
10088;SDS011;51898;49.864;8.550;2023-03-01T18:00:18;17.10;;;11.00;;
10088;SDS011;51898;49.864;8.550;2023-03-01T18:03:20;16.20;;;11.47;;
10088;SDS011;51898;49.864;8.550;2023-03-01T18:06:23;17.07;;;11.23;;
10088;SDS011;51898;49.864;8.550;2023-03-01T18:09:26;15.80;;;10.60;;
10088;SDS011;51898;49.864;8.550;2023-03-01T18:12:29;17.83;;;11.97;;
10088;SDS011;51898;49.864;8.550;2023-03-01T18:15:32;17.77;;;11.40;;
10088;SDS011;51898;49.864;8.550;2023-03-01T18:18:34;23.13;;;12.67;;
10088;SDS011;51898;49.864;8.550;2023-03-01T18:21:36;18.63;;;11.57;;
10088;SDS011;51898;49.864;8.550;2023-03-01T18:24:39;18.43;;;11.47;;
10088;SDS011;51898;49.864;8.550;2023-03-01T18:27:41;20.43;;;12.50;;
10088;SDS011;51898;49.864;8.550;2023-03-01T18:30:43;18.57;;;11.57;;
10088;SDS011;51898;49.864;8.550;2023-03-01T18:33:45;17.07;;;10.80;;
10088;SDS011;51898;49.864;8.550;2023-03-01T18:36:47;18.83;;;11.27;;
10088;SDS011;51898;49.864;8.550;2023-03-01T18:40:09;17.60;;;10.33;;
10088;SDS011;51898;49.864;8.550;2023-03-01T18:43:13;18.27;;;11.53;;
10088;SDS011;51898;49.864;8.550;2023-03-01T18:46:15;18.10;;;10.50;;
10088;SDS011;51898;49.864;8.550;2023-03-01T18:49:17;17.83;;;10.50;;
10088;SDS011;51898;49.864;8.550;2023-03-01T18:52:19;16.97;;;11.37;;
10088;SDS011;51898;49.864;8.550;2023-03-01T18:55:21;15.63;;;10.10;;
10088;SDS011;51898;49.864;8.550;2023-03-01T18:58:22;17.57;;;10.70;;
10088;SDS011;51898;49.864;8.550;2023-03-01T19:01:25;17.60;;;10.00;;
10088;SDS011;51898;49.864;8.550;2023-03-01T19:04:28;20.73;;;11.90;;
10088;SDS011;51898;49.864;8.550;2023-03-01T19:07:30;19.33;;;12.03;;
10088;SDS011;51898;49.864;8.550;2023-03-01T19:10:32;18.53;;;11.37;;
10088;SDS011;51898;49.864;8.550;2023-03-01T19:13:34;18.43;;;11.20;;
10088;SDS011;51898;49.864;8.550;2023-03-01T19:16:37;16.00;;;10.60;;
10088;SDS011;51898;49.864;8.550;2023-03-01T19:19:39;19.03;;;11.50;;
10088;SDS011;51898;49.864;8.550;2023-03-01T19:22:41;16.53;;;10.77;;
10088;SDS011;51898;49.864;8.550;2023-03-01T19:25:43;16.57;;;10.10;;
10088;SDS011;51898;49.864;8.550;2023-03-01T19:28:44;15.80;;;8.83;;
10088;SDS011;51898;49.864;8.550;2023-03-01T19:31:47;19.80;;;11.20;;
10088;SDS011;51898;49.864;8.550;2023-03-01T19:34:49;22.43;;;11.00;;
10088;SDS011;51898;49.864;8.550;2023-03-01T19:37:52;19.47;;;11.27;;
10088;SDS011;51898;49.864;8.550;2023-03-01T19:40:54;15.93;;;10.90;;
10088;SDS011;51898;49.864;8.550;2023-03-01T19:43:56;20.40;;;11.63;;